sensor_id;sensor_type;location;lat;lon;timestamp;pressure;altitude;pressure_sealevel;temperature;humidity
19761;BME280;10039;42.632;23.408;2023-04-10T00:00:08;95129.63;;;9.06;65.01
19761;BME280;10039;42.632;23.408;2023-04-10T00:02:34;95120.31;;;8.88;65.20
19761;BME280;10039;42.632;23.408;2023-04-10T00:05:01;95139.06;;;9.10;64.68
19761;BME280;10039;42.632;23.408;2023-04-10T00:07:27;95117.50;;;9.01;64.58
19761;BME280;10039;42.632;23.408;2023-04-10T00:09:53;95125.06;;;9.06;64.68
19761;BME280;10039;42.632;23.408;2023-04-10T00:12:19;95095.19;;;8.92;63.83
19761;BME280;10039;42.632;23.408;2023-04-10T00:14:45;95085.47;;;8.75;62.89
19761;BME280;10039;42.632;23.408;2023-04-10T00:17:11;95114.13;;;8.97;63.62
19761;BME280;10039;42.632;23.408;2023-04-10T00:19:36;95124.19;;;9.16;63.51
19761;BME280;10039;42.632;23.408;2023-04-10T00:22:03;95118.78;;;9.23;62.78
19761;BME280;10039;42.632;23.408;2023-04-10T00:24:29;95134.69;;;9.30;62.64
19761;BME280;10039;42.632;23.408;2023-04-10T00:26:55;95116.63;;;9.11;62.13
19761;BME280;10039;42.632;23.408;2023-04-10T00:29:21;95091.09;;;8.84;60.87
19761;BME280;10039;42.632;23.408;2023-04-10T00:31:47;95109.38;;;8.79;59.95
19761;BME280;10039;42.632;23.408;2023-04-10T00:34:14;95092.84;;;8.61;60.56
19761;BME280;10039;42.632;23.408;2023-04-10T00:36:40;95110.06;;;8.86;61.55
19761;BME280;10039;42.632;23.408;2023-04-10T00:39:07;95083.78;;;8.91;61.58
19761;BME280;10039;42.632;23.408;2023-04-10T00:41:33;95088.78;;;8.86;58.14
19761;BME280;10039;42.632;23.408;2023-04-10T00:43:59;95072.03;;;8.86;59.15
19761;BME280;10039;42.632;23.408;2023-04-10T00:46:25;95098.34;;;9.13;59.78
19761;BME280;10039;42.632;23.408;2023-04-10T00:48:52;95101.38;;;9.15;58.80
19761;BME280;10039;42.632;23.408;2023-04-10T00:51:19;95111.59;;;9.20;59.44
19761;BME280;10039;42.632;23.408;2023-04-10T00:53:49;95095.31;;;9.11;57.60
19761;BME280;10039;42.632;23.408;2023-04-10T00:56:19;95059.81;;;8.91;58.88
19761;BME280;10039;42.632;23.408;2023-04-10T00:58:45;95096.03;;;9.15;56.73
19761;BME280;10039;42.632;23.408;2023-04-10T01:01:11;95044.00;;;8.78;58.00
19761;BME280;10039;42.632;23.408;2023-04-10T01:03:38;95068.03;;;9.04;59.39
19761;BME280;10039;42.632;23.408;2023-04-10T01:09:03;95082.91;;;9.01;60.91
19761;BME280;10039;42.632;23.408;2023-04-10T01:14:37;95066.13;;;8.71;61.98
19761;BME280;10039;42.632;23.408;2023-04-10T01:17:12;95047.91;;;8.70;61.89
19761;BME280;10039;42.632;23.408;2023-04-10T01:20:03;95066.88;;;9.05;62.49
19761;BME280;10039;42.632;23.408;2023-04-10T01:25:50;95082.00;;;9.15;61.74
19761;BME280;10039;42.632;23.408;2023-04-10T01:30:46;95078.94;;;8.80;61.88
19761;BME280;10039;42.632;23.408;2023-04-10T01:33:16;95079.66;;;8.84;61.91
19761;BME280;10039;42.632;23.408;2023-04-10T01:35:46;95067.94;;;8.78;62.00
19761;BME280;10039;42.632;23.408;2023-04-10T01:38:16;95058.56;;;8.66;62.23
19761;BME280;10039;42.632;23.408;2023-04-10T01:40:43;95060.81;;;8.71;61.86
19761;BME280;10039;42.632;23.408;2023-04-10T01:43:15;95076.56;;;8.88;62.35
19761;BME280;10039;42.632;23.408;2023-04-10T01:45:42;95054.75;;;8.71;61.91
19761;BME280;10039;42.632;23.408;2023-04-10T01:48:10;95048.66;;;8.70;61.57
19761;BME280;10039;42.632;23.408;2023-04-10T01:50:37;95081.06;;;8.95;61.50
19761;BME280;10039;42.632;23.408;2023-04-10T01:53:04;95093.63;;;8.94;61.64
19761;BME280;10039;42.632;23.408;2023-04-10T01:55:32;95059.53;;;8.83;62.07
19761;BME280;10039;42.632;23.408;2023-04-10T01:57:59;95078.03;;;8.96;62.17
19761;BME280;10039;42.632;23.408;2023-04-10T02:00:26;95075.34;;;8.96;61.91
19761;BME280;10039;42.632;23.408;2023-04-10T02:02:52;95059.81;;;8.91;62.63
19761;BME280;10039;42.632;23.408;2023-04-10T02:05:18;95057.72;;;8.76;63.39
19761;BME280;10039;42.632;23.408;2023-04-10T02:07:59;95032.84;;;8.56;64.01
19761;BME280;10039;42.632;23.408;2023-04-10T02:11:01;95066.44;;;8.77;64.63
19761;BME280;10039;42.632;23.408;2023-04-10T02:13:26;95047.13;;;8.73;64.20
19761;BME280;10039;42.632;23.408;2023-04-10T02:15:54;95065.22;;;8.85;64.68
19761;BME280;10039;42.632;23.408;2023-04-10T02:18:22;95025.25;;;8.55;64.29
19761;BME280;10039;42.632;23.408;2023-04-10T02:20:49;95059.88;;;8.85;64.59
19761;BME280;10039;42.632;23.408;2023-04-10T02:23:16;95044.59;;;8.59;65.06
19761;BME280;10039;42.632;23.408;2023-04-10T02:25:42;95045.06;;;8.50;65.59
19761;BME280;10039;42.632;23.408;2023-04-10T02:28:08;95062.19;;;8.46;65.34
19761;BME280;10039;42.632;23.408;2023-04-10T02:30:34;95050.19;;;8.31;65.51
19761;BME280;10039;42.632;23.408;2023-04-10T02:33:00;95042.94;;;8.35;65.90
19761;BME280;10039;42.632;23.408;2023-04-10T02:35:25;95027.41;;;8.30;65.58
19761;BME280;10039;42.632;23.408;2023-04-10T02:37:53;95048.16;;;8.45;66.02
19761;BME280;10039;42.632;23.408;2023-04-10T02:40:18;95014.13;;;8.30;65.96
19761;BME280;10039;42.632;23.408;2023-04-10T02:42:44;95037.47;;;8.49;65.98
19761;BME280;10039;42.632;23.408;2023-04-10T02:45:10;95019.97;;;8.11;66.57
19761;BME280;10039;42.632;23.408;2023-04-10T02:47:36;95009.03;;;8.02;66.83
19761;BME280;10039;42.632;23.408;2023-04-10T02:50:02;95005.22;;;8.03;66.72
19761;BME280;10039;42.632;23.408;2023-04-10T02:52:27;95004.69;;;8.22;66.33
19761;BME280;10039;42.632;23.408;2023-04-10T02:54:53;95003.66;;;8.09;66.10
19761;BME280;10039;42.632;23.408;2023-04-10T02:57:19;95005.88;;;8.14;66.20
19761;BME280;10039;42.632;23.408;2023-04-10T02:59:49;94983.19;;;8.02;66.43
19761;BME280;10039;42.632;23.408;2023-04-10T03:02:15;95002.22;;;7.97;65.70
19761;BME280;10039;42.632;23.408;2023-04-10T03:04:41;95021.06;;;8.17;65.98
19761;BME280;10039;42.632;23.408;2023-04-10T03:07:07;94980.97;;;7.97;65.40
19761;BME280;10039;42.632;23.408;2023-04-10T03:09:33;95023.28;;;8.22;65.95
19761;BME280;10039;42.632;23.408;2023-04-10T03:11:59;94996.59;;;7.92;65.49
19761;BME280;10039;42.632;23.408;2023-04-10T03:14:26;95006.75;;;8.04;65.40
19761;BME280;10039;42.632;23.408;2023-04-10T03:16:52;95002.25;;;7.94;66.04
19761;BME280;10039;42.632;23.408;2023-04-10T03:19:18;95021.53;;;8.05;66.04
19761;BME280;10039;42.632;23.408;2023-04-10T03:21:45;95001.06;;;7.98;65.37
19761;BME280;10039;42.632;23.408;2023-04-10T03:24:11;95031.69;;;8.17;65.58
19761;BME280;10039;42.632;23.408;2023-04-10T03:26:37;94994.69;;;7.89;65.54
19761;BME280;10039;42.632;23.408;2023-04-10T03:29:03;94989.84;;;7.80;65.76
19761;BME280;10039;42.632;23.408;2023-04-10T03:31:29;95027.22;;;8.07;65.89
19761;BME280;10039;42.632;23.408;2023-04-10T03:33:55;95027.34;;;7.89;66.79
19761;BME280;10039;42.632;23.408;2023-04-10T03:36:21;95022.81;;;7.86;66.71
19761;BME280;10039;42.632;23.408;2023-04-10T03:38:47;95028.78;;;8.01;66.06
19761;BME280;10039;42.632;23.408;2023-04-10T03:41:12;95038.66;;;7.97;65.89
19761;BME280;10039;42.632;23.408;2023-04-10T03:43:38;95018.88;;;8.01;66.13
19761;BME280;10039;42.632;23.408;2023-04-10T03:46:04;95013.38;;;8.26;65.84
19761;BME280;10039;42.632;23.408;2023-04-10T03:48:31;95038.56;;;8.55;65.56
19761;BME280;10039;42.632;23.408;2023-04-10T03:50:57;95019.94;;;8.55;65.13
19761;BME280;10039;42.632;23.408;2023-04-10T03:53:23;95038.06;;;8.67;64.60
19761;BME280;10039;42.632;23.408;2023-04-10T03:55:49;95038.41;;;8.69;64.73
19761;BME280;10039;42.632;23.408;2023-04-10T03:58:17;95033.13;;;8.28;65.05
19761;BME280;10039;42.632;23.408;2023-04-10T04:00:42;95026.44;;;8.10;65.57
19761;BME280;10039;42.632;23.408;2023-04-10T04:03:08;95027.13;;;8.14;65.44
19761;BME280;10039;42.632;23.408;2023-04-10T04:05:33;95033.88;;;8.29;65.38
19761;BME280;10039;42.632;23.408;2023-04-10T04:07:59;95032.34;;;8.28;65.34
19761;BME280;10039;42.632;23.408;2023-04-10T04:10:25;95040.75;;;8.23;65.36
19761;BME280;10039;42.632;23.408;2023-04-10T04:12:51;95052.84;;;8.31;65.18
19761;BME280;10039;42.632;23.408;2023-04-10T04:15:17;95056.25;;;8.31;64.86
19761;BME280;10039;42.632;23.408;2023-04-10T04:17:43;95052.94;;;8.17;65.09
19761;BME280;10039;42.632;23.408;2023-04-10T04:20:11;95033.97;;;8.18;65.17
19761;BME280;10039;42.632;23.408;2023-04-10T04:22:39;95040.44;;;8.17;65.33
19761;BME280;10039;42.632;23.408;2023-04-10T04:25:06;95057.44;;;8.27;65.75
19761;BME280;10039;42.632;23.408;2023-04-10T04:27:35;95059.72;;;8.28;65.78
19761;BME280;10039;42.632;23.408;2023-04-10T04:30:01;95056.72;;;8.23;65.99
19761;BME280;10039;42.632;23.408;2023-04-10T04:32:27;95061.41;;;8.05;67.33
19761;BME280;10039;42.632;23.408;2023-04-10T04:34:52;95066.66;;;8.08;67.68
19761;BME280;10039;42.632;23.408;2023-04-10T04:37:18;95042.16;;;7.87;67.36
19761;BME280;10039;42.632;23.408;2023-04-10T04:39:44;95070.47;;;8.11;68.07
19761;BME280;10039;42.632;23.408;2023-04-10T04:42:10;95055.34;;;8.01;67.55
19761;BME280;10039;42.632;23.408;2023-04-10T04:44:36;95041.69;;;7.99;67.94
19761;BME280;10039;42.632;23.408;2023-04-10T04:47:01;95068.91;;;8.17;67.82
19761;BME280;10039;42.632;23.408;2023-04-10T04:49:27;95077.56;;;8.28;67.99
19761;BME280;10039;42.632;23.408;2023-04-10T04:51:53;95034.41;;;8.10;67.63
19761;BME280;10039;42.632;23.408;2023-04-10T04:54:18;95061.03;;;8.03;67.58
19761;BME280;10039;42.632;23.408;2023-04-10T04:56:44;95080.16;;;8.31;67.40
19761;BME280;10039;42.632;23.408;2023-04-10T04:59:10;95079.03;;;8.32;68.14
19761;BME280;10039;42.632;23.408;2023-04-10T05:01:36;95054.50;;;8.11;67.45
19761;BME280;10039;42.632;23.408;2023-04-10T05:04:11;95054.47;;;8.14;67.48
19761;BME280;10039;42.632;23.408;2023-04-10T05:06:37;95039.66;;;8.17;66.98
19761;BME280;10039;42.632;23.408;2023-04-10T05:09:03;95089.09;;;8.55;66.73
19761;BME280;10039;42.632;23.408;2023-04-10T05:11:29;95029.19;;;8.43;66.68
19761;BME280;10039;42.632;23.408;2023-04-10T05:13:55;95059.69;;;8.69;66.11
19761;BME280;10039;42.632;23.408;2023-04-10T05:16:21;95084.69;;;8.78;65.45
19761;BME280;10039;42.632;23.408;2023-04-10T05:18:47;95079.66;;;8.84;65.64
19761;BME280;10039;42.632;23.408;2023-04-10T05:21:13;95052.06;;;8.71;64.76
19761;BME280;10039;42.632;23.408;2023-04-10T05:23:38;95063.78;;;8.77;64.80
19761;BME280;10039;42.632;23.408;2023-04-10T05:26:05;95031.69;;;8.57;64.11
19761;BME280;10039;42.632;23.408;2023-04-10T05:28:30;95043.75;;;8.65;64.58
19761;BME280;10039;42.632;23.408;2023-04-10T05:30:57;95057.59;;;8.87;64.37
19761;BME280;10039;42.632;23.408;2023-04-10T05:33:24;95081.47;;;8.93;63.69
19761;BME280;10039;42.632;23.408;2023-04-10T05:35:49;95062.03;;;8.96;64.01
19761;BME280;10039;42.632;23.408;2023-04-10T05:38:15;95068.09;;;9.00;63.52
19761;BME280;10039;42.632;23.408;2023-04-10T05:40:44;95081.63;;;9.13;63.55
19761;BME280;10039;42.632;23.408;2023-04-10T05:43:12;95077.69;;;9.24;63.66
19761;BME280;10039;42.632;23.408;2023-04-10T05:45:38;95055.00;;;9.13;63.41
19761;BME280;10039;42.632;23.408;2023-04-10T05:48:05;95052.97;;;9.24;62.93
19761;BME280;10039;42.632;23.408;2023-04-10T05:50:30;95088.47;;;9.44;62.88
19761;BME280;10039;42.632;23.408;2023-04-10T05:52:56;95060.72;;;9.41;62.93
19761;BME280;10039;42.632;23.408;2023-04-10T05:55:22;95070.50;;;9.51;62.51
19761;BME280;10039;42.632;23.408;2023-04-10T05:57:47;95068.94;;;9.54;62.22
19761;BME280;10039;42.632;23.408;2023-04-10T06:00:16;95091.50;;;9.72;62.55
19761;BME280;10039;42.632;23.408;2023-04-10T06:02:42;95069.69;;;9.54;62.45
19761;BME280;10039;42.632;23.408;2023-04-10T06:05:08;95065.00;;;9.62;62.76
19761;BME280;10039;42.632;23.408;2023-04-10T06:07:34;95070.19;;;9.72;62.43
19761;BME280;10039;42.632;23.408;2023-04-10T06:10:00;95088.94;;;9.92;62.18
19761;BME280;10039;42.632;23.408;2023-04-10T06:12:27;95060.38;;;9.69;62.34
19761;BME280;10039;42.632;23.408;2023-04-10T06:14:53;95068.22;;;9.76;62.48
19761;BME280;10039;42.632;23.408;2023-04-10T06:17:19;95055.03;;;9.69;62.44
19761;BME280;10039;42.632;23.408;2023-04-10T06:19:45;95088.78;;;10.05;61.92
19761;BME280;10039;42.632;23.408;2023-04-10T06:22:11;95070.81;;;10.09;61.14
19761;BME280;10039;42.632;23.408;2023-04-10T06:24:37;95068.00;;;10.20;61.28
19761;BME280;10039;42.632;23.408;2023-04-10T06:27:03;95074.63;;;10.35;61.27
19761;BME280;10039;42.632;23.408;2023-04-10T06:29:28;95089.03;;;10.37;60.43
19761;BME280;10039;42.632;23.408;2023-04-10T06:31:54;95067.81;;;10.30;59.90
19761;BME280;10039;42.632;23.408;2023-04-10T06:34:21;95083.41;;;10.55;60.57
19761;BME280;10039;42.632;23.408;2023-04-10T06:36:46;95085.38;;;10.51;60.29
19761;BME280;10039;42.632;23.408;2023-04-10T06:39:12;95087.06;;;10.64;60.08
19761;BME280;10039;42.632;23.408;2023-04-10T06:41:38;95057.06;;;10.57;59.68
19761;BME280;10039;42.632;23.408;2023-04-10T06:44:04;95077.34;;;10.74;59.34
19761;BME280;10039;42.632;23.408;2023-04-10T06:46:30;95060.13;;;9.83;60.13
19761;BME280;10039;42.632;23.408;2023-04-10T06:48:55;95098.59;;;9.56;61.53
19761;BME280;10039;42.632;23.408;2023-04-10T06:51:20;95092.78;;;9.91;61.64
19761;BME280;10039;42.632;23.408;2023-04-10T06:53:46;95100.91;;;10.10;61.18
19761;BME280;10039;42.632;23.408;2023-04-10T06:56:12;95099.06;;;10.30;61.54
19761;BME280;10039;42.632;23.408;2023-04-10T06:58:38;95081.78;;;10.15;60.43
19761;BME280;10039;42.632;23.408;2023-04-10T07:01:04;95095.81;;;10.42;61.23
19761;BME280;10039;42.632;23.408;2023-04-10T07:03:30;95088.75;;;10.32;60.50
19761;BME280;10039;42.632;23.408;2023-04-10T07:05:57;95071.00;;;10.22;60.36
19761;BME280;10039;42.632;23.408;2023-04-10T07:08:23;95068.56;;;10.31;60.19
19761;BME280;10039;42.632;23.408;2023-04-10T07:10:49;95075.28;;;10.39;59.84
19761;BME280;10039;42.632;23.408;2023-04-10T07:13:15;95086.66;;;10.66;60.78
19761;BME280;10039;42.632;23.408;2023-04-10T07:15:40;95073.31;;;10.66;59.76
19761;BME280;10039;42.632;23.408;2023-04-10T07:18:06;95077.66;;;10.56;59.27
19761;BME280;10039;42.632;23.408;2023-04-10T07:20:31;95069.78;;;10.49;58.58
19761;BME280;10039;42.632;23.408;2023-04-10T07:22:57;95086.59;;;10.69;59.49
19761;BME280;10039;42.632;23.408;2023-04-10T07:25:23;95079.81;;;10.84;59.69
19761;BME280;10039;42.632;23.408;2023-04-10T07:27:49;95092.66;;;10.93;58.45
19761;BME280;10039;42.632;23.408;2023-04-10T07:30:15;95097.53;;;10.98;58.47
19761;BME280;10039;42.632;23.408;2023-04-10T07:32:41;95105.66;;;10.91;58.24
19761;BME280;10039;42.632;23.408;2023-04-10T07:35:07;95095.19;;;10.80;58.33
19761;BME280;10039;42.632;23.408;2023-04-10T07:37:33;95072.47;;;10.69;58.71
19761;BME280;10039;42.632;23.408;2023-04-10T07:39:58;95086.16;;;10.51;59.48
19761;BME280;10039;42.632;23.408;2023-04-10T07:42:25;95082.59;;;10.58;58.88
19761;BME280;10039;42.632;23.408;2023-04-10T07:44:51;95101.28;;;10.58;59.32
19761;BME280;10039;42.632;23.408;2023-04-10T07:47:17;95093.97;;;10.62;59.25
19761;BME280;10039;42.632;23.408;2023-04-10T07:49:42;95069.66;;;10.56;59.26
19761;BME280;10039;42.632;23.408;2023-04-10T07:52:08;95078.19;;;10.48;58.80
19761;BME280;10039;42.632;23.408;2023-04-10T07:54:33;95103.22;;;10.77;59.35
19761;BME280;10039;42.632;23.408;2023-04-10T07:56:59;95093.59;;;10.83;58.97
19761;BME280;10039;42.632;23.408;2023-04-10T07:59:26;95091.00;;;10.79;58.79
19761;BME280;10039;42.632;23.408;2023-04-10T08:01:53;95073.75;;;10.84;59.28
19761;BME280;10039;42.632;23.408;2023-04-10T08:04:19;95068.06;;;10.82;58.65
19761;BME280;10039;42.632;23.408;2023-04-10T08:06:44;95079.44;;;10.86;58.25
19761;BME280;10039;42.632;23.408;2023-04-10T08:09:10;95077.25;;;10.58;58.32
19761;BME280;10039;42.632;23.408;2023-04-10T08:11:36;95075.63;;;10.64;58.88
19761;BME280;10039;42.632;23.408;2023-04-10T08:14:02;95101.25;;;10.81;59.01
19761;BME280;10039;42.632;23.408;2023-04-10T08:16:29;95080.63;;;10.62;59.43
19761;BME280;10039;42.632;23.408;2023-04-10T08:18:56;95082.66;;;10.54;59.68
19761;BME280;10039;42.632;23.408;2023-04-10T08:21:23;95092.91;;;10.79;60.01
19761;BME280;10039;42.632;23.408;2023-04-10T08:23:49;95083.06;;;10.95;59.65
19761;BME280;10039;42.632;23.408;2023-04-10T08:26:16;95073.69;;;11.07;58.83
19761;BME280;10039;42.632;23.408;2023-04-10T08:28:41;95062.31;;;11.22;58.82
19761;BME280;10039;42.632;23.408;2023-04-10T08:31:12;95075.16;;;11.30;57.65
19761;BME280;10039;42.632;23.408;2023-04-10T08:33:38;95107.53;;;11.32;57.85
19761;BME280;10039;42.632;23.408;2023-04-10T08:36:04;95100.06;;;11.24;57.85
19761;BME280;10039;42.632;23.408;2023-04-10T08:38:30;95105.63;;;11.33;58.13
19761;BME280;10039;42.632;23.408;2023-04-10T08:40:57;95101.22;;;11.42;58.24
19761;BME280;10039;42.632;23.408;2023-04-10T08:43:23;95098.41;;;11.49;57.29
19761;BME280;10039;42.632;23.408;2023-04-10T08:45:51;95104.38;;;11.37;57.43
19761;BME280;10039;42.632;23.408;2023-04-10T08:48:18;95075.75;;;11.38;57.92
19761;BME280;10039;42.632;23.408;2023-04-10T08:50:45;95090.63;;;11.58;57.11
19761;BME280;10039;42.632;23.408;2023-04-10T08:53:12;95073.78;;;11.22;56.15
19761;BME280;10039;42.632;23.408;2023-04-10T08:55:40;95073.34;;;11.43;56.71
19761;BME280;10039;42.632;23.408;2023-04-10T08:58:06;95092.72;;;11.67;56.79
19761;BME280;10039;42.632;23.408;2023-04-10T09:00:36;95082.28;;;11.72;56.69
19761;BME280;10039;42.632;23.408;2023-04-10T09:03:08;95093.19;;;11.81;56.13
19761;BME280;10039;42.632;23.408;2023-04-10T09:05:35;95064.00;;;11.51;56.78
19761;BME280;10039;42.632;23.408;2023-04-10T09:08:06;95059.16;;;11.66;56.27
19761;BME280;10039;42.632;23.408;2023-04-10T09:10:32;95064.25;;;11.60;56.67
19761;BME280;10039;42.632;23.408;2023-04-10T09:12:57;95088.13;;;11.67;57.07
19761;BME280;10039;42.632;23.408;2023-04-10T09:15:23;95054.19;;;11.64;57.47
19761;BME280;10039;42.632;23.408;2023-04-10T09:17:59;95088.47;;;12.05;56.90
19761;BME280;10039;42.632;23.408;2023-04-10T09:20:28;95080.09;;;12.19;56.18
19761;BME280;10039;42.632;23.408;2023-04-10T09:22:54;95073.44;;;11.75;55.47
19761;BME280;10039;42.632;23.408;2023-04-10T09:25:30;95075.41;;;11.91;56.03
19761;BME280;10039;42.632;23.408;2023-04-10T09:28:00;95057.84;;;11.74;55.94
19761;BME280;10039;42.632;23.408;2023-04-10T09:30:37;95073.97;;;11.86;55.89
19761;BME280;10039;42.632;23.408;2023-04-10T09:33:23;95077.81;;;11.85;56.47
19761;BME280;10039;42.632;23.408;2023-04-10T09:35:49;95044.66;;;11.63;56.21
19761;BME280;10039;42.632;23.408;2023-04-10T09:38:19;95047.28;;;11.83;56.65
19761;BME280;10039;42.632;23.408;2023-04-10T09:40:46;95057.09;;;11.89;55.56
19761;BME280;10039;42.632;23.408;2023-04-10T09:43:23;95044.91;;;11.88;54.98
19761;BME280;10039;42.632;23.408;2023-04-10T09:45:58;95066.03;;;11.99;55.70
19761;BME280;10039;42.632;23.408;2023-04-10T09:48:24;95054.00;;;11.91;56.28
19761;BME280;10039;42.632;23.408;2023-04-10T09:50:51;95039.56;;;11.88;56.12
19761;BME280;10039;42.632;23.408;2023-04-10T09:53:18;95060.75;;;11.79;55.96
19761;BME280;10039;42.632;23.408;2023-04-10T09:55:48;95039.13;;;11.90;55.76
19761;BME280;10039;42.632;23.408;2023-04-10T09:58:15;95035.53;;;11.80;54.89
19761;BME280;10039;42.632;23.408;2023-04-10T10:00:43;95037.38;;;11.83;54.30
19761;BME280;10039;42.632;23.408;2023-04-10T10:03:19;95015.91;;;11.51;53.94
19761;BME280;10039;42.632;23.408;2023-04-10T10:05:50;95054.16;;;11.84;53.87
19761;BME280;10039;42.632;23.408;2023-04-10T10:08:16;95038.88;;;11.84;53.31
19761;BME280;10039;42.632;23.408;2023-04-10T10:10:51;95025.69;;;12.09;53.58
19761;BME280;10039;42.632;23.408;2023-04-10T10:13:27;95033.03;;;12.21;53.50
19761;BME280;10039;42.632;23.408;2023-04-10T10:16:03;95041.06;;;12.21;53.28
19761;BME280;10039;42.632;23.408;2023-04-10T10:18:39;95047.16;;;12.22;52.63
19761;BME280;10039;42.632;23.408;2023-04-10T10:21:09;95024.09;;;11.96;53.03
19761;BME280;10039;42.632;23.408;2023-04-10T10:23:36;95033.19;;;12.30;53.88
19761;BME280;10039;42.632;23.408;2023-04-10T10:26:04;94994.81;;;12.21;53.92
19761;BME280;10039;42.632;23.408;2023-04-10T10:28:35;95029.66;;;12.49;52.97
19761;BME280;10039;42.632;23.408;2023-04-10T10:31:04;95030.31;;;12.53;52.08
19761;BME280;10039;42.632;23.408;2023-04-10T10:33:31;95028.63;;;12.59;52.04
19761;BME280;10039;42.632;23.408;2023-04-10T10:36:00;95017.69;;;12.53;51.73
19761;BME280;10039;42.632;23.408;2023-04-10T10:38:27;94983.72;;;12.50;52.60
19761;BME280;10039;42.632;23.408;2023-04-10T10:41:11;94984.50;;;12.35;51.73
19761;BME280;10039;42.632;23.408;2023-04-10T10:44:15;95009.50;;;12.44;51.38
19761;BME280;10039;42.632;23.408;2023-04-10T10:46:52;95005.84;;;12.38;52.37
19761;BME280;10039;42.632;23.408;2023-04-10T10:49:59;94957.41;;;12.33;52.50
19761;BME280;10039;42.632;23.408;2023-04-10T10:58:08;94964.00;;;13.01;50.97
19761;BME280;10039;42.632;23.408;2023-04-10T11:06:05;94965.34;;;13.46;50.81
19761;BME280;10039;42.632;23.408;2023-04-10T11:08:36;94954.94;;;13.48;49.20
19761;BME280;10039;42.632;23.408;2023-04-10T11:16:14;94959.84;;;13.75;48.73
19761;BME280;10039;42.632;23.408;2023-04-10T11:19:08;94961.34;;;13.76;47.98
19761;BME280;10039;42.632;23.408;2023-04-10T11:22:00;94957.50;;;13.52;46.38
19761;BME280;10039;42.632;23.408;2023-04-10T11:24:26;94934.03;;;13.31;46.86
19761;BME280;10039;42.632;23.408;2023-04-10T11:26:52;94948.16;;;13.07;47.58
19761;BME280;10039;42.632;23.408;2023-04-10T11:31:57;94925.41;;;12.58;48.01
19761;BME280;10039;42.632;23.408;2023-04-10T11:34:24;94958.19;;;12.90;47.57
19761;BME280;10039;42.632;23.408;2023-04-10T11:36:52;94923.97;;;12.82;47.58
19761;BME280;10039;42.632;23.408;2023-04-10T11:39:18;94922.44;;;12.68;47.20
19761;BME280;10039;42.632;23.408;2023-04-10T11:41:52;94940.81;;;12.95;48.16
19761;BME280;10039;42.632;23.408;2023-04-10T11:44:27;94955.13;;;13.17;48.90
19761;BME280;10039;42.632;23.408;2023-04-10T11:46:53;94940.75;;;12.98;49.40
19761;BME280;10039;42.632;23.408;2023-04-10T11:49:24;94935.53;;;13.20;49.64
19761;BME280;10039;42.632;23.408;2023-04-10T11:52:03;94921.38;;;13.32;48.75
19761;BME280;10039;42.632;23.408;2023-04-10T11:59:39;94949.94;;;11.96;51.19
19761;BME280;10039;42.632;23.408;2023-04-10T12:04:32;94924.25;;;11.54;53.13
19761;BME280;10039;42.632;23.408;2023-04-10T12:06:58;94938.75;;;11.53;54.02
19761;BME280;10039;42.632;23.408;2023-04-10T12:09:24;94930.28;;;11.39;54.30
19761;BME280;10039;42.632;23.408;2023-04-10T12:14:20;94945.13;;;11.75;55.46
19761;BME280;10039;42.632;23.408;2023-04-10T12:16:47;94930.56;;;11.76;55.76
19761;BME280;10039;42.632;23.408;2023-04-10T12:19:14;94939.19;;;11.68;57.02
19761;BME280;10039;42.632;23.408;2023-04-10T12:21:44;94950.81;;;11.61;58.53
19761;BME280;10039;42.632;23.408;2023-04-10T12:24:10;94963.06;;;11.59;58.62
19761;BME280;10039;42.632;23.408;2023-04-10T12:26:37;94943.81;;;11.32;59.19
19761;BME280;10039;42.632;23.408;2023-04-10T12:29:03;94920.28;;;11.08;60.18
19761;BME280;10039;42.632;23.408;2023-04-10T12:31:34;94962.16;;;11.30;60.49
19761;BME280;10039;42.632;23.408;2023-04-10T12:34:01;94953.13;;;11.24;60.76
19761;BME280;10039;42.632;23.408;2023-04-10T12:36:28;94957.06;;;11.35;60.01
19761;BME280;10039;42.632;23.408;2023-04-10T12:38:56;94953.72;;;11.31;60.25
19761;BME280;10039;42.632;23.408;2023-04-10T12:41:27;94951.75;;;11.51;59.38
19761;BME280;10039;42.632;23.408;2023-04-10T12:44:12;94927.25;;;11.56;59.97
19761;BME280;10039;42.632;23.408;2023-04-10T12:46:38;94944.28;;;11.94;58.66
19761;BME280;10039;42.632;23.408;2023-04-10T12:51:42;94929.97;;;12.01;55.29
19761;BME280;10039;42.632;23.408;2023-04-10T12:54:35;94939.38;;;11.41;54.49
19761;BME280;10039;42.632;23.408;2023-04-10T12:57:25;94942.25;;;11.50;55.42
19761;BME280;10039;42.632;23.408;2023-04-10T12:59:52;94910.00;;;11.41;55.08
19761;BME280;10039;42.632;23.408;2023-04-10T13:02:21;94943.34;;;11.85;56.23
19761;BME280;10039;42.632;23.408;2023-04-10T13:04:47;94937.16;;;12.04;55.26
19761;BME280;10039;42.632;23.408;2023-04-10T13:07:13;94910.09;;;11.86;55.58
19761;BME280;10039;42.632;23.408;2023-04-10T13:09:42;94924.13;;;11.90;55.20
19761;BME280;10039;42.632;23.408;2023-04-10T13:12:08;94905.19;;;11.84;55.47
19761;BME280;10039;42.632;23.408;2023-04-10T13:14:34;94900.09;;;11.74;55.60
19761;BME280;10039;42.632;23.408;2023-04-10T13:17:01;94926.69;;;12.09;55.26
19761;BME280;10039;42.632;23.408;2023-04-10T13:19:27;94908.44;;;11.76;55.57
19761;BME280;10039;42.632;23.408;2023-04-10T13:21:52;94918.44;;;12.04;55.79
19761;BME280;10039;42.632;23.408;2023-04-10T13:24:18;94886.34;;;11.88;55.53
19761;BME280;10039;42.632;23.408;2023-04-10T13:26:44;94855.94;;;11.98;55.92
19761;BME280;10039;42.632;23.408;2023-04-10T13:29:09;94900.47;;;12.32;55.52
19761;BME280;10039;42.632;23.408;2023-04-10T13:31:35;94888.88;;;12.23;55.68
19761;BME280;10039;42.632;23.408;2023-04-10T13:34:01;94856.97;;;12.16;55.26
19761;BME280;10039;42.632;23.408;2023-04-10T13:36:26;94891.78;;;12.57;55.33
19761;BME280;10039;42.632;23.408;2023-04-10T13:38:52;94858.88;;;12.56;55.11
19761;BME280;10039;42.632;23.408;2023-04-10T13:41:18;94875.38;;;12.55;54.78